首页
METAR-TAF:

METAR-TAF

机场 :

Sandy Lake, 安大略省, 加拿大

纬度: 53-03-51N, 经度: 093-20-40W, 海拔: 290米

当前天气观测

该预报发布于25分钟前的21:21 UTC
静风
温度 17°C
湿度 100%
气压 996 hPa
能見度: 4.8公里
多云层高于3900英尺
阴天层高于6000英尺
小雨, 轻雾

METAR: CZSJ 242121Z AUTO 00000KT 3SM -RA BR BKN039 OVC060 17/17 A2942 RMK PRESFR PCPN 2.0MM PAST HR TS/LTNG TEMPO UNAVBL SLP968 DENSITY ALT 2000FT

时间: 16:46 (21:46 UTC)

预报

该预报发布于39分钟前的21:07 UTC
预报有效从24日的 21点(UTC)到 24日的 22点(UTC)
风速15节,风向多变,有时为25节阵风
能見度: 4.0公里
多云层高于2000英尺, 积雨云.
阴天层高于5000英尺
雷暴, 雨, 轻雾
短暂存在
从 24日的 21点(UTC)到 24日的 22点(UTC)
能見度: 10公里
散云层高于5000英尺
阴天层高于10000英尺
小阵雨

TAF: CZSJ 242107Z 2421/2422 VRB15G25KT 2 1/2SM TSRA BR BKN020CB OVC050 TEMPO 2421/2422 P6SM -SHRA SCT050 OVC100 RMK FCST BASED ON AUTO OBS. NXT FCST BY 251000Z

超过4000个机场的气象观测和天气预报(METAR&TAF报告)。

可查询的气象台以黄色和红色小点在地图上表示。

将鼠标移到小点上方,可查看气象台名称。

然后点击查看天气观测和预报。

如需切换地图:点击带黑十字的绿色按钮放大地图;点击带横线的绿色按钮缩小地图;或者点击绿色箭头查看邻近地区的地图。


METAR-TAF: